createdAt,value
2022-09-11T00:01:35.301Z,27.27
2022-09-11T00:04:09.523Z,27.80
2022-09-11T00:06:43.955Z,28.98
2022-09-11T00:09:17.191Z,26.12
2022-09-11T00:11:50.654Z,26.62
2022-09-11T00:14:23.895Z,21.62
2022-09-11T00:16:57.470Z,26.07
2022-09-11T00:19:31.229Z,30.17
2022-09-11T00:22:06.325Z,26.33
2022-09-11T00:24:39.861Z,31.70
2022-09-11T00:27:13.101Z,27.10
2022-09-11T00:29:48.010Z,26.37
2022-09-11T00:32:21.831Z,27.15
2022-09-11T00:34:55.741Z,26.02
2022-09-11T00:37:29.335Z,31.60
2022-09-11T00:40:02.763Z,27.17
2022-09-11T00:42:36.100Z,24.43
2022-09-11T00:45:13.376Z,25.85
2022-09-11T00:47:46.743Z,24.45
2022-09-11T00:50:22.974Z,21.23
2022-09-11T00:52:59.696Z,26.00
2022-09-11T00:55:37.425Z,27.85
2022-09-11T00:58:13.892Z,26.12
2022-09-11T01:00:48.125Z,26.23
2022-09-11T01:03:21.981Z,23.62
2022-09-11T01:05:55.614Z,23.55
2022-09-11T01:08:29.257Z,24.12
2022-09-11T01:11:06.701Z,22.77
2022-09-11T01:13:43.376Z,21.12
2022-09-11T01:16:20.031Z,27.32
2022-09-11T01:18:57.014Z,30.95
2022-09-11T01:22:02.112Z,26.17
2022-09-11T01:24:47.402Z,28.02
2022-09-11T01:30:33.862Z,24.43
2022-09-11T01:33:17.347Z,34.38
2022-09-11T01:35:57.209Z,26.35
2022-09-11T01:38:36.482Z,26.37
2022-09-11T01:41:14.671Z,23.85
2022-09-11T01:43:51.334Z,27.05
2022-09-11T01:46:27.274Z,28.20
2022-09-11T01:49:04.146Z,23.27
2022-09-11T01:51:39.154Z,27.42
2022-09-11T01:54:15.752Z,20.90
2022-09-11T01:56:51.524Z,26.80
2022-09-11T01:59:28.935Z,22.77
2022-09-11T02:02:06.893Z,19.95
2022-09-11T02:04:44.243Z,36.93
2022-09-11T02:07:20.949Z,29.65
2022-09-11T02:09:58.605Z,27.20
2022-09-11T02:12:39.969Z,24.77
2022-09-11T02:15:16.795Z,28.90
2022-09-11T02:17:54.173Z,28.97
2022-09-11T02:20:29.575Z,28.30
2022-09-11T02:23:03.216Z,26.15
2022-09-11T02:25:36.596Z,22.37
2022-09-11T02:28:10.832Z,30.30
2022-09-11T02:30:45.186Z,27.25
2022-09-11T02:33:33.005Z,27.58
2022-09-11T02:36:34.908Z,24.40
2022-09-11T02:39:17.516Z,31.20
2022-09-11T02:41:56.257Z,27.07
2022-09-11T02:44:34.135Z,34.10
2022-09-11T02:47:15.293Z,24.57
2022-09-11T02:49:54.086Z,27.42
2022-09-11T02:52:33.502Z,25.23
2022-09-11T02:55:10.615Z,20.92
2022-09-11T02:57:46.934Z,36.07
2022-09-11T03:00:20.998Z,28.62
2022-09-11T03:02:54.606Z,24.47
2022-09-11T03:05:28.821Z,22.85
2022-09-11T03:08:03.925Z,30.60
2022-09-11T03:10:38.715Z,24.10
2022-09-11T03:13:14.898Z,23.57
2022-09-11T03:15:49.794Z,32.28
2022-09-11T03:18:23.242Z,24.63
2022-09-11T03:20:57.821Z,23.35
2022-09-11T03:23:31.439Z,31.45
2022-09-11T03:26:04.469Z,28.35
2022-09-11T03:28:37.886Z,26.97
2022-09-11T03:31:14.084Z,26.42
2022-09-11T03:33:47.461Z,28.62
2022-09-11T03:36:21.233Z,26.57
2022-09-11T03:38:55.263Z,26.85
2022-09-11T03:41:28.612Z,30.62
2022-09-11T03:44:02.371Z,32.45
2022-09-11T03:46:35.573Z,38.90
2022-09-11T03:49:09.643Z,39.20
2022-09-11T03:51:43.420Z,34.78
2022-09-11T03:54:18.020Z,25.27
2022-09-11T03:56:51.404Z,27.52
2022-09-11T03:59:25.317Z,30.95
2022-09-11T04:01:59.115Z,30.57
2022-09-11T04:04:33.052Z,31.05
2022-09-11T04:07:06.987Z,36.38
2022-09-11T04:09:40.090Z,31.62
2022-09-11T04:12:13.652Z,29.40
2022-09-11T04:14:46.856Z,25.10
2022-09-11T04:17:21.930Z,31.45
2022-09-11T04:19:55.526Z,27.32
2022-09-11T04:22:28.812Z,28.00
2022-09-11T04:25:02.289Z,25.48
2022-09-11T04:27:35.947Z,34.43
2022-09-11T04:30:12.331Z,33.15
2022-09-11T04:32:46.490Z,27.75
2022-09-11T04:35:22.245Z,28.30
2022-09-11T04:37:57.164Z,24.50
2022-09-11T04:40:30.191Z,36.05
2022-09-11T04:43:03.505Z,29.07
2022-09-11T04:45:36.813Z,28.95
2022-09-11T04:48:10.532Z,28.07
2022-09-11T04:50:44.451Z,34.55
2022-09-11T04:53:19.158Z,24.98
2022-09-11T04:55:52.712Z,28.80
2022-09-11T04:58:26.026Z,28.40
2022-09-11T05:00:59.184Z,29.07
2022-09-11T05:03:32.732Z,25.60
2022-09-11T05:06:08.156Z,23.75
2022-09-11T05:08:41.526Z,25.17
2022-09-11T05:11:16.485Z,25.85
2022-09-11T05:13:50.452Z,25.23
2022-09-11T05:16:23.855Z,23.40
2022-09-11T05:18:59.466Z,23.02
2022-09-11T05:21:33.823Z,25.50
2022-09-11T05:24:08.244Z,25.43
2022-09-11T05:26:41.380Z,26.82
2022-09-11T05:29:15.955Z,26.97
2022-09-11T05:31:51.910Z,29.98
2022-09-11T05:34:25.753Z,25.85
2022-09-11T05:36:59.910Z,23.60
2022-09-11T05:39:34.997Z,27.73
2022-09-11T05:42:09.571Z,27.67
2022-09-11T05:44:44.562Z,27.65
2022-09-11T05:47:17.974Z,26.87
2022-09-11T05:49:52.970Z,25.37
2022-09-11T05:52:26.816Z,39.40
2022-09-11T05:55:00.504Z,32.35
2022-09-11T05:57:35.716Z,30.55
2022-09-11T06:00:11.196Z,26.60
2022-09-11T06:02:45.985Z,33.25
2022-09-11T06:05:19.480Z,27.42
2022-09-11T06:07:53.784Z,29.00
2022-09-11T06:10:27.551Z,23.92
2022-09-11T06:13:05.146Z,36.65
2022-09-11T06:15:51.225Z,24.00
2022-09-11T06:18:25.293Z,20.62
2022-09-11T06:21:00.077Z,22.90
2022-09-11T06:23:34.704Z,24.10
2022-09-11T06:26:10.070Z,38.25
2022-09-11T06:28:45.401Z,24.00
2022-09-11T06:31:22.214Z,22.27
2022-09-11T06:36:30.175Z,23.02
2022-09-11T06:39:05.032Z,18.80
2022-09-11T06:41:40.032Z,23.67
2022-09-11T06:44:14.838Z,22.65
2022-09-11T06:46:48.323Z,15.75
2022-09-11T06:49:23.114Z,20.23
2022-09-11T06:52:14.457Z,15.58
2022-09-11T06:54:50.557Z,16.95
2022-09-11T06:57:24.804Z,14.73
2022-09-11T06:59:58.523Z,13.10
2022-09-11T07:02:32.202Z,17.45
2022-09-11T07:05:07.589Z,11.10
2022-09-11T07:07:41.435Z,16.40
2022-09-11T07:10:14.940Z,14.23
2022-09-11T07:12:49.763Z,17.42
2022-09-11T07:15:23.573Z,17.60
2022-09-11T07:17:56.945Z,9.75
2022-09-11T07:20:31.440Z,11.65
2022-09-11T07:23:04.876Z,6.22
2022-09-11T07:25:40.544Z,11.20
2022-09-11T07:28:14.305Z,10.82
2022-09-11T07:30:49.095Z,9.50
2022-09-11T07:33:23.164Z,9.75
2022-09-11T07:35:56.982Z,11.03
2022-09-11T07:38:31.899Z,14.87
2022-09-11T07:41:06.712Z,13.13
2022-09-11T07:43:42.335Z,7.17
2022-09-11T07:46:17.254Z,7.65
2022-09-11T07:48:51.085Z,10.25
2022-09-11T07:51:25.829Z,11.88
2022-09-11T07:54:01.420Z,8.83
2022-09-11T07:56:37.520Z,8.15
2022-09-11T07:59:12.625Z,10.28
2022-09-11T08:01:47.322Z,8.05
2022-09-11T08:04:21.526Z,6.60
2022-09-11T08:06:55.321Z,6.15
2022-09-11T08:09:30.520Z,6.30
2022-09-11T08:12:52.730Z,4.97
2022-09-11T08:15:41.887Z,5.53
2022-09-11T08:18:16.869Z,8.90
2022-09-11T08:20:50.161Z,3.05
2022-09-11T08:23:24.841Z,3.58
2022-09-11T08:26:07.611Z,4.45
2022-09-11T08:28:44.247Z,5.22
2022-09-11T08:31:20.302Z,6.12
2022-09-11T08:33:54.773Z,6.13
2022-09-11T08:36:28.708Z,8.80
2022-09-11T08:39:03.540Z,7.42
2022-09-11T08:41:46.655Z,6.58
2022-09-11T08:44:23.668Z,7.78
2022-09-11T08:47:01.558Z,7.35
2022-09-11T08:49:38.195Z,5.25
2022-09-11T08:52:15.488Z,8.23
2022-09-11T08:54:50.814Z,10.85
2022-09-11T08:57:28.134Z,7.87
2022-09-11T09:00:13.060Z,12.28
2022-09-11T09:03:14.884Z,9.75
2022-09-11T09:05:51.749Z,6.33
2022-09-11T09:08:42.021Z,8.23
2022-09-11T09:11:22.504Z,8.18
2022-09-11T09:14:06.038Z,6.20
2022-09-11T09:16:47.743Z,5.17
2022-09-11T09:19:25.806Z,9.13
2022-09-11T09:22:05.872Z,5.70
2022-09-11T09:24:45.144Z,5.85
2022-09-11T09:27:21.656Z,5.78
2022-09-11T09:29:58.442Z,6.20
2022-09-11T09:32:34.786Z,5.97
2022-09-11T09:35:13.172Z,6.92
2022-09-11T09:37:46.962Z,7.10
2022-09-11T09:40:21.754Z,8.08
2022-09-11T09:43:19.565Z,5.35
2022-09-11T09:46:05.199Z,8.40
2022-09-11T09:48:40.904Z,7.70
2022-09-11T09:51:16.379Z,6.55
2022-09-11T09:53:53.208Z,6.95
2022-09-11T09:56:27.813Z,5.70
2022-09-11T09:59:03.905Z,6.47
2022-09-11T10:01:49.710Z,7.62
2022-09-11T10:04:25.748Z,6.70
2022-09-11T10:07:11.026Z,5.15
2022-09-11T10:09:51.081Z,4.17
2022-09-11T10:12:27.145Z,5.33
2022-09-11T10:15:02.229Z,8.33
2022-09-11T10:17:37.880Z,6.08
2022-09-11T10:20:29.247Z,6.75
2022-09-11T10:23:08.636Z,6.80
2022-09-11T10:25:48.338Z,5.62
2022-09-11T10:28:25.929Z,7.75
2022-09-11T10:31:03.085Z,8.78
2022-09-11T10:33:38.607Z,6.75
2022-09-11T10:36:13.264Z,11.12
2022-09-11T10:38:50.212Z,5.03
2022-09-11T10:41:27.106Z,6.92
2022-09-11T10:44:02.491Z,7.23
2022-09-11T10:46:38.151Z,8.20
2022-09-11T10:49:19.824Z,10.58
2022-09-11T10:52:05.802Z,7.62
2022-09-11T10:54:52.648Z,7.85
2022-09-11T10:57:30.120Z,8.13
2022-09-11T11:00:11.960Z,12.07
2022-09-11T11:02:48.027Z,5.92
2022-09-11T11:05:27.229Z,4.80
2022-09-11T11:08:14.524Z,7.78
2022-09-11T11:10:56.333Z,7.37
2022-09-11T11:13:38.547Z,4.78
2022-09-11T11:16:17.984Z,6.92
2022-09-11T11:19:02.526Z,5.22
2022-09-11T11:21:43.343Z,4.58
2022-09-11T11:24:23.570Z,6.87
2022-09-11T11:27:04.896Z,8.03
2022-09-11T11:30:00.800Z,8.63
2022-09-11T11:32:46.950Z,7.50
2022-09-11T11:35:26.124Z,3.52
2022-09-11T11:38:03.370Z,7.65
2022-09-11T11:40:39.658Z,4.78
2022-09-11T11:43:16.502Z,8.43
2022-09-11T11:45:52.978Z,5.83
2022-09-11T11:48:30.359Z,4.75
2022-09-11T11:51:09.690Z,6.80
2022-09-11T11:53:45.815Z,6.80
2022-09-11T11:56:22.830Z,4.97
2022-09-11T11:59:00.819Z,3.90
2022-09-11T12:01:38.541Z,4.70
2022-09-11T12:06:47.450Z,10.78
2022-09-11T12:09:21.466Z,5.47
2022-09-11T12:11:57.664Z,5.47
2022-09-11T12:14:33.786Z,4.72
2022-09-11T12:17:22.874Z,5.83
2022-09-11T12:20:19.080Z,5.67
2022-09-11T12:22:52.695Z,5.28
2022-09-11T12:26:00.606Z,6.75
2022-09-11T12:28:34.812Z,7.08
2022-09-11T12:31:11.505Z,5.90
2022-09-11T12:33:56.303Z,5.08
2022-09-11T12:36:37.331Z,9.00
2022-09-11T12:39:26.881Z,8.08
2022-09-11T12:42:37.278Z,9.15
2022-09-11T12:45:35.597Z,6.00
2022-09-11T12:48:13.128Z,8.58
2022-09-11T12:50:56.589Z,7.58
2022-09-11T12:53:32.572Z,6.70
2022-09-11T12:56:08.447Z,5.55
2022-09-11T12:58:44.051Z,6.97
2022-09-11T13:01:21.927Z,7.25
2022-09-11T13:03:59.918Z,5.12
2022-09-11T13:06:42.966Z,7.53
2022-09-11T13:09:23.450Z,6.72
2022-09-11T13:11:58.485Z,7.92
2022-09-11T13:14:51.819Z,11.08
2022-09-11T13:17:31.069Z,5.10
2022-09-11T13:20:23.139Z,6.25
2022-09-11T13:22:58.757Z,5.05
2022-09-11T13:25:33.223Z,5.33
2022-09-11T13:28:08.476Z,7.00
2022-09-11T13:30:51.575Z,4.80
2022-09-11T13:33:29.230Z,4.97
2022-09-11T13:36:06.073Z,5.50
2022-09-11T13:38:43.561Z,13.83
2022-09-11T13:41:19.727Z,8.08
2022-09-11T13:43:58.255Z,9.13
2022-09-11T13:46:33.912Z,7.37
2022-09-11T13:49:28.362Z,16.02
2022-09-11T13:52:03.667Z,11.22
2022-09-11T13:54:39.337Z,6.75
2022-09-11T13:57:21.550Z,9.23
2022-09-11T13:59:58.431Z,8.25
2022-09-11T14:02:51.614Z,8.63
2022-09-11T14:05:32.889Z,6.20
2022-09-11T14:08:08.994Z,6.75
2022-09-11T14:10:48.183Z,6.05
2022-09-11T14:13:27.972Z,6.30
2022-09-11T14:16:05.690Z,7.78
2022-09-11T14:18:44.142Z,6.62
2022-09-11T14:21:23.575Z,5.85
2022-09-11T14:24:10.170Z,5.40
2022-09-11T14:26:44.860Z,7.37
2022-09-11T14:29:30.940Z,4.80
2022-09-11T14:32:31.541Z,4.85
2022-09-11T14:35:07.703Z,7.33
2022-09-11T14:37:45.846Z,8.33
2022-09-11T14:40:21.232Z,4.37
2022-09-11T14:42:54.571Z,10.85
2022-09-11T14:45:28.195Z,8.73
2022-09-11T14:48:02.658Z,4.72
2022-09-11T14:50:36.007Z,5.37
2022-09-11T14:53:11.670Z,4.92
2022-09-11T14:55:44.994Z,3.98
2022-09-11T14:58:18.637Z,4.67
2022-09-11T15:00:51.702Z,11.00
2022-09-11T15:03:26.272Z,10.75
2022-09-11T15:06:00.863Z,12.82
2022-09-11T15:08:34.200Z,5.12
2022-09-11T15:11:07.960Z,9.25
2022-09-11T15:13:57.854Z,8.48
2022-09-11T15:16:16.573Z,10.40
2022-09-11T15:18:50.047Z,10.80
2022-09-11T15:21:23.179Z,5.92
2022-09-11T15:23:56.329Z,4.85
2022-09-11T15:26:29.549Z,7.03
2022-09-11T15:29:03.148Z,8.83
2022-09-11T15:31:36.721Z,4.37
2022-09-11T15:34:10.754Z,6.78
2022-09-11T15:36:44.927Z,11.57
2022-09-11T15:39:20.072Z,5.53
2022-09-11T15:41:53.537Z,6.03
2022-09-11T15:44:29.530Z,8.53
2022-09-11T15:47:03.537Z,6.15
2022-09-11T15:49:41.564Z,6.30
2022-09-11T15:52:15.485Z,5.55
2022-09-11T15:54:50.693Z,5.12
2022-09-11T15:57:25.707Z,7.40
2022-09-11T15:59:59.074Z,7.78
2022-09-11T16:02:34.009Z,5.83
2022-09-11T16:05:08.412Z,10.35
2022-09-11T16:07:41.902Z,8.58
2022-09-11T16:10:15.050Z,6.28
2022-09-11T16:12:48.405Z,11.78
2022-09-11T16:15:22.335Z,11.12
2022-09-11T16:17:55.806Z,11.78
2022-09-11T16:20:28.977Z,8.35
2022-09-11T16:23:03.860Z,7.90
2022-09-11T16:25:42.546Z,10.58
2022-09-11T16:28:22.128Z,16.85
2022-09-11T16:30:57.256Z,10.58
2022-09-11T16:33:31.565Z,16.87
2022-09-11T16:36:08.899Z,10.75
2022-09-11T16:38:43.280Z,12.68
2022-09-11T16:41:22.815Z,13.28
2022-09-11T16:43:56.403Z,17.73
2022-09-11T16:46:31.253Z,9.33
2022-09-11T16:49:06.545Z,7.83
2022-09-11T16:51:39.983Z,10.55
2022-09-11T16:54:13.541Z,13.03
2022-09-11T16:56:46.453Z,15.93
2022-09-11T16:59:22.056Z,7.70
2022-09-11T17:01:57.221Z,7.78
2022-09-11T17:04:36.221Z,11.80
2022-09-11T17:07:09.484Z,13.28
2022-09-11T17:09:43.631Z,9.60
2022-09-11T17:12:17.772Z,11.53
2022-09-11T17:14:52.830Z,14.38
2022-09-11T17:17:26.249Z,12.47
2022-09-11T17:19:59.536Z,8.80
2022-09-11T17:22:34.500Z,13.40
2022-09-11T17:25:09.228Z,14.15
2022-09-11T17:27:42.708Z,10.13
2022-09-11T17:30:17.608Z,9.98
2022-09-11T17:32:51.102Z,9.00
2022-09-11T17:35:24.330Z,14.73
2022-09-11T17:37:57.504Z,17.05
2022-09-11T17:40:36.090Z,21.60
2022-09-11T17:43:11.010Z,14.68
2022-09-11T17:45:44.448Z,12.03
2022-09-11T17:48:18.236Z,11.43
2022-09-11T17:50:53.344Z,18.77
2022-09-11T17:53:27.070Z,11.57
2022-09-11T17:56:05.394Z,17.85
2022-09-11T17:58:39.322Z,12.25
2022-09-11T18:01:16.656Z,14.90
2022-09-11T18:03:52.704Z,9.33
2022-09-11T18:06:29.304Z,10.65
2022-09-11T18:09:06.213Z,15.90
2022-09-11T18:11:39.635Z,11.88
2022-09-11T18:14:13.893Z,12.78
2022-09-11T18:16:49.515Z,11.00
2022-09-11T18:19:26.178Z,14.47
2022-09-11T18:21:59.871Z,15.43
2022-09-11T18:24:33.258Z,16.50
2022-09-11T18:27:07.054Z,12.53
2022-09-11T18:29:40.768Z,14.35
2022-09-11T18:32:14.168Z,13.32
2022-09-11T18:34:48.269Z,13.10
2022-09-11T18:37:22.192Z,10.70
2022-09-11T18:39:55.352Z,13.18
2022-09-11T18:42:28.511Z,15.83
2022-09-11T18:45:01.820Z,20.10
2022-09-11T18:47:35.440Z,13.00
2022-09-11T18:50:10.762Z,21.07
2022-09-11T18:52:46.352Z,14.15
2022-09-11T18:55:22.920Z,17.48
2022-09-11T18:57:56.311Z,13.78
2022-09-11T19:00:29.982Z,14.03
2022-09-11T19:03:03.170Z,16.35
2022-09-11T19:05:36.361Z,13.35
2022-09-11T19:08:10.417Z,14.03
2022-09-11T19:10:44.231Z,18.30
2022-09-11T19:13:17.675Z,11.40
2022-09-11T19:16:00.237Z,14.18
2022-09-11T19:18:33.560Z,11.60
2022-09-11T19:21:10.235Z,18.60
2022-09-11T19:23:45.325Z,11.25
2022-09-11T19:26:20.845Z,18.40
2022-09-11T19:28:55.924Z,14.43
2022-09-11T19:31:30.687Z,15.58
2022-09-11T19:34:04.362Z,17.45
2022-09-11T19:36:38.824Z,16.40
2022-09-11T19:39:13.103Z,11.33
2022-09-11T19:41:46.561Z,14.25
2022-09-11T19:44:21.282Z,13.18
2022-09-11T19:46:56.413Z,13.95
2022-09-11T19:49:30.233Z,9.48
2022-09-11T19:52:06.007Z,10.45
2022-09-11T19:54:39.766Z,14.95
2022-09-11T19:57:13.312Z,10.23
2022-09-11T19:59:49.385Z,13.98
2022-09-11T20:02:23.248Z,16.20
2022-09-11T20:04:56.445Z,12.07
2022-09-11T20:07:30.098Z,13.65
2022-09-11T20:10:03.804Z,18.52
2022-09-11T20:12:37.385Z,9.10
2022-09-11T20:15:13.183Z,15.13
2022-09-11T20:17:46.374Z,13.40
2022-09-11T20:20:21.057Z,13.30
2022-09-11T20:22:56.134Z,13.03
2022-09-11T20:25:29.745Z,14.98
2022-09-11T20:28:03.914Z,12.65
2022-09-11T20:30:37.223Z,15.25
2022-09-11T20:33:11.850Z,17.55
2022-09-11T20:35:46.332Z,11.85
2022-09-11T20:38:19.900Z,12.98
2022-09-11T20:40:53.557Z,14.50
2022-09-11T20:43:27.051Z,12.88
2022-09-11T20:46:00.583Z,13.83
2022-09-11T20:48:34.352Z,14.07
2022-09-11T20:51:09.520Z,14.90
2022-09-11T20:53:45.295Z,14.58
2022-09-11T20:56:22.478Z,12.95
2022-09-11T20:58:55.912Z,12.13
2022-09-11T21:01:32.476Z,15.68
2022-09-11T21:04:07.002Z,18.82
2022-09-11T21:06:40.218Z,16.97
2022-09-11T21:09:14.599Z,12.90
2022-09-11T21:11:48.774Z,18.50
2022-09-11T21:14:22.073Z,14.33
2022-09-11T21:16:56.711Z,14.10
2022-09-11T21:19:30.176Z,14.53
2022-09-11T21:22:03.368Z,17.42
2022-09-11T21:24:37.937Z,15.25
2022-09-11T21:27:11.281Z,14.47
2022-09-11T21:29:45.264Z,17.15
2022-09-11T21:32:18.846Z,13.65
2022-09-11T21:34:52.064Z,14.75
2022-09-11T21:37:25.868Z,15.08
2022-09-11T21:39:59.371Z,16.90
2022-09-11T21:42:36.341Z,18.57
2022-09-11T21:45:12.028Z,17.35
2022-09-11T21:47:45.984Z,13.45
2022-09-11T21:50:20.081Z,22.65
2022-09-11T21:52:53.310Z,20.65
2022-09-11T21:55:28.184Z,21.57
2022-09-11T21:58:02.154Z,14.23
2022-09-11T22:00:42.627Z,20.75
2022-09-11T22:03:13.619Z,16.45
2022-09-11T22:05:51.516Z,18.20
2022-09-11T22:10:57.093Z,15.88
2022-09-11T22:13:31.060Z,21.02
2022-09-11T22:16:07.142Z,17.48
2022-09-11T22:18:41.807Z,19.80
2022-09-11T22:21:15.624Z,14.63
2022-09-11T22:23:49.780Z,20.40
2022-09-11T22:26:24.379Z,23.52
2022-09-11T22:28:58.669Z,19.12
2022-09-11T22:31:32.618Z,19.85
2022-09-11T22:34:06.433Z,19.75
2022-09-11T22:36:40.052Z,19.73
2022-09-11T22:39:13.304Z,16.55
2022-09-11T22:41:46.624Z,20.70
2022-09-11T22:44:21.005Z,18.15
2022-09-11T22:46:54.315Z,18.02
2022-09-11T22:49:28.282Z,17.80
2022-09-11T22:52:01.504Z,19.25
2022-09-11T22:54:35.647Z,20.10
2022-09-11T22:57:09.235Z,23.92
2022-09-11T22:59:42.861Z,19.77
2022-09-11T23:02:16.643Z,17.37
2022-09-11T23:05:08.964Z,16.80
2022-09-11T23:07:42.400Z,14.85
2022-09-11T23:10:15.721Z,14.98
2022-09-11T23:12:48.948Z,21.10
2022-09-11T23:15:23.039Z,21.23
2022-09-11T23:17:56.404Z,14.43
2022-09-11T23:20:31.642Z,13.83
2022-09-11T23:23:05.904Z,15.40
2022-09-11T23:25:42.282Z,19.55
2022-09-11T23:28:16.023Z,13.18
2022-09-11T23:30:49.298Z,14.73
2022-09-11T23:33:22.881Z,16.35
2022-09-11T23:35:56.772Z,13.65
2022-09-11T23:38:29.949Z,16.85
2022-09-11T23:41:03.856Z,21.37
2022-09-11T23:43:37.707Z,12.25
2022-09-11T23:46:11.759Z,11.83
2022-09-11T23:48:45.531Z,12.18
2022-09-11T23:51:19.466Z,9.58
2022-09-11T23:53:53.155Z,14.55
2022-09-11T23:56:27.293Z,10.90
2022-09-11T23:59:00.664Z,13.48
